Time;durP1;ratioP1;P1;durP2;ratioP2;P2;SDS_P1;SDS_P2;PMS_P1;PMS_P2;Temp;Humidity;BMP_temperature;BMP_pressure;BME280_temperature;BME280_humidity;BME280_pressure;Samples;Min_cycle;Max_cycle;Signal;HPM_P1;HPM_P2
2023/01/16 00:01:24;;;;;;;7.65;3.22;;;4.50;99.90;;;;;;5058858;28;20063;-73
2023/01/16 00:03:50;;;;;;;7.07;3.13;;;4.40;99.90;;;;;;5026659;28;20048;-73
2023/01/16 00:06:16;;;;;;;7.88;3.22;;;4.70;99.90;;;;;;5056246;28;20051;-74
2023/01/16 00:08:43;;;;;;;10.10;3.30;;;4.70;99.90;;;;;;5058111;28;20051;-74
2023/01/16 00:11:10;;;;;;;7.47;3.17;;;4.40;99.90;;;;;;5019654;28;20052;-72
2023/01/16 00:13:36;;;;;;;9.30;3.50;;;5.00;99.90;;;;;;5045217;28;20478;-74
2023/01/16 00:16:02;;;;;;;10.18;3.97;;;4.40;99.90;;;;;;5052678;28;20055;-73
2023/01/16 00:18:28;;;;;;;7.55;3.47;;;4.40;99.90;;;;;;5059611;28;20036;-73
2023/01/16 00:20:53;;;;;;;6.97;3.63;;;4.40;99.90;;;;;;5062234;28;20055;-73
2023/01/16 00:23:19;;;;;;;9.20;4.13;;;4.40;99.90;;;;;;5061875;28;20436;-73
2023/01/16 00:25:45;;;;;;;10.73;4.15;;;4.40;99.90;;;;;;5061605;28;20048;-73
2023/01/16 00:28:13;;;;;;;8.52;3.67;;;4.40;99.90;;;;;;5044017;28;20466;-73
2023/01/16 00:30:39;;;;;;;9.80;4.15;;;4.40;99.90;;;;;;5055978;28;20048;-74
2023/01/16 00:33:05;;;;;;;10.85;4.60;;;4.40;99.90;;;;;;5038624;28;20066;-74
2023/01/16 00:35:32;;;;;;;11.77;5.13;;;4.40;99.90;;;;;;5056466;28;20067;-71
2023/01/16 00:37:57;;;;;;;8.90;3.88;;;4.40;99.90;;;;;;5073250;28;20051;-74
2023/01/16 00:40:23;;;;;;;10.23;4.20;;;4.40;99.90;;;;;;5051823;28;20055;-72
2023/01/16 00:42:49;;;;;;;12.10;4.22;;;4.40;99.90;;;;;;5053180;28;20059;-72
2023/01/16 00:45:15;;;;;;;11.35;4.45;;;4.40;99.90;;;;;;5078931;28;20408;-72
2023/01/16 00:47:41;;;;;;;13.30;4.82;;;4.40;99.90;;;;;;5058856;28;20035;-73
2023/01/16 00:50:07;;;;;;;12.07;4.68;;;4.40;99.90;;;;;;5062674;28;20038;-73
2023/01/16 00:52:33;;;;;;;11.15;4.35;;;4.40;99.90;;;;;;5047201;28;20071;-73
2023/01/16 00:54:59;;;;;;;10.98;4.25;;;4.40;99.90;;;;;;5075166;28;20044;-73
2023/01/16 00:57:25;;;;;;;9.95;4.30;;;4.40;99.90;;;;;;5041106;28;20048;-73
2023/01/16 00:59:50;;;;;;;8.88;3.92;;;4.30;99.90;;;;;;5059534;28;20149;-72
2023/01/16 01:02:16;;;;;;;13.10;4.35;;;4.30;99.90;;;;;;5076345;28;20044;-73
2023/01/16 01:04:42;;;;;;;10.82;3.65;;;4.30;99.90;;;;;;5044519;28;20173;-72
2023/01/16 01:07:08;;;;;;;10.85;3.95;;;4.30;99.90;;;;;;5040527;28;20181;-72
2023/01/16 01:09:33;;;;;;;11.60;4.28;;;4.30;99.90;;;;;;5056519;28;20059;-73
2023/01/16 01:11:59;;;;;;;10.40;3.33;;;4.50;99.90;;;;;;5044736;28;20086;-73
2023/01/16 01:14:25;;;;;;;10.15;3.30;;;4.20;99.90;;;;;;5059930;28;20070;-73
2023/01/16 01:16:51;;;;;;;11.25;3.63;;;4.20;99.90;;;;;;5041322;28;20343;-73
2023/01/16 01:19:20;;;;;;;9.82;3.65;;;4.10;99.90;;;;;;5058964;28;20086;-73
2023/01/16 01:21:46;;;;;;;12.00;3.25;;;4.10;99.90;;;;;;5074343;28;20039;-73
2023/01/16 01:24:11;;;;;;;9.85;2.92;;;4.10;99.90;;;;;;5081639;28;20051;-73
2023/01/16 01:26:37;;;;;;;7.15;3.13;;;4.00;99.90;;;;;;5043329;28;20101;-73
2023/01/16 01:29:04;;;;;;;9.80;3.35;;;4.10;99.90;;;;;;5067079;28;20075;-73
2023/01/16 01:31:30;;;;;;;11.23;3.50;;;4.00;99.90;;;;;;5075836;28;20044;-73
2023/01/16 01:33:55;;;;;;;9.77;2.88;;;4.00;99.90;;;;;;5063244;28;20047;-73
2023/01/16 01:36:21;;;;;;;9.43;3.08;;;4.00;99.90;;;;;;5045064;28;20492;-73
2023/01/16 01:38:49;;;;;;;10.20;2.90;;;4.40;99.90;;;;;;5054370;28;20101;-73
2023/01/16 01:41:15;;;;;;;9.77;3.30;;;4.00;99.90;;;;;;5078583;28;20036;-72
2023/01/16 01:43:46;;;;;;;10.32;3.50;;;4.00;99.90;;;;;;5057408;28;20048;-72
2023/01/16 01:46:15;;;;;;;;;;;4.00;99.90;;;;;;5057274;28;20051;-72
2023/01/16 01:48:41;;;;;;;10.60;2.88;;;4.00;99.90;;;;;;5058130;28;20512;-72
2023/01/16 01:51:36;;;;;;;11.43;3.33;;;4.00;99.90;;;;;;5042453;28;20051;-73
2023/01/16 01:54:07;;;;;;;9.25;3.13;;;4.00;99.90;;;;;;5074503;28;20131;-73
2023/01/16 01:56:45;;;;;;;13.63;2.72;;;3.90;99.90;;;;;;5064387;28;20455;-73
2023/01/16 01:59:15;;;;;;;9.70;3.00;;;4.00;99.90;;;;;;5059766;28;20140;-73
2023/01/16 02:01:41;;;;;;;7.90;2.53;;;3.90;99.90;;;;;;5055485;28;20058;-73
2023/01/16 02:04:20;;;;;;;9.77;2.80;;;3.90;99.90;;;;;;5045146;28;20130;-73
2023/01/16 02:06:48;;;;;;;8.15;2.70;;;3.90;99.90;;;;;;5059764;28;20067;-73
2023/01/16 02:09:15;;;;;;;10.02;2.85;;;3.90;99.90;;;;;;5031007;28;20063;-73
2023/01/16 02:12:08;;;;;;;8.50;2.35;;;3.90;99.90;;;;;;5056442;28;20055;-73
2023/01/16 02:14:37;;;;;;;7.40;2.70;;;3.80;99.90;;;;;;5062423;28;20055;-73
2023/01/16 02:20:09;;;;;;;10.68;2.55;;;3.80;99.90;;;;;;5073879;28;20045;-73
2023/01/16 02:22:40;;;;;;;13.38;3.08;;;3.80;99.90;;;;;;5051962;28;20097;-74
2023/01/16 02:25:09;;;;;;;;;;;3.80;99.90;;;;;;5057488;28;20522;-73
2023/01/16 02:27:52;;;;;;;9.73;2.50;;;3.80;99.90;;;;;;5054151;28;19931;-73
2023/01/16 02:30:39;;;;;;;10.13;2.90;;;3.80;99.90;;;;;;5074858;28;20051;-73
2023/01/16 02:33:23;;;;;;;6.90;2.70;;;3.80;99.90;;;;;;5035991;28;20046;-73
2023/01/16 02:36:10;;;;;;;12.75;2.83;;;3.80;99.90;;;;;;5078620;28;20453;-73
2023/01/16 02:38:55;;;;;;;8.57;2.90;;;3.80;99.90;;;;;;5050788;28;20044;-73
2023/01/16 02:41:31;;;;;;;11.55;3.03;;;4.40;99.90;;;;;;5047852;28;20504;-73
2023/01/16 02:44:07;;;;;;;11.45;2.90;;;3.80;99.90;;;;;;5070734;28;20074;-73
2023/01/16 02:46:43;;;;;;;8.13;2.83;;;4.10;99.90;;;;;;5040221;28;20055;-73
2023/01/16 02:49:22;;;;;;;12.10;2.70;;;3.80;99.90;;;;;;5060817;28;20561;-73
2023/01/16 02:51:56;;;;;;;8.68;3.13;;;3.80;99.90;;;;;;5038899;28;20786;-73
2023/01/16 02:54:45;;;;;;;10.25;3.08;;;3.80;99.90;;;;;;5033844;28;20453;-73
2023/01/16 02:57:17;;;;;;;11.43;3.17;;;4.10;99.90;;;;;;5056019;28;20056;-73
2023/01/16 02:59:43;;;;;;;7.13;2.78;;;3.80;99.90;;;;;;5054155;28;20040;-73
2023/01/16 03:02:09;;;;;;;13.77;2.90;;;3.80;99.90;;;;;;5064231;28;20043;-73
2023/01/16 03:04:43;;;;;;;6.88;2.75;;;4.30;99.90;;;;;;5051264;28;20047;-73
2023/01/16 03:07:24;;;;;;;10.38;2.90;;;3.90;99.90;;;;;;5064182;28;20051;-73
2023/01/16 03:10:17;;;;;;;7.35;2.85;;;3.80;99.90;;;;;;5037377;28;20164;-73
2023/01/16 03:12:58;;;;;;;7.55;2.80;;;3.90;99.90;;;;;;5021070;28;20525;-73
2023/01/16 03:15:36;;;;;;;10.93;2.80;;;3.90;99.90;;;;;;5034368;28;20059;-73
2023/01/16 03:18:20;;;;;;;12.93;3.22;;;3.90;99.90;;;;;;5028853;28;20664;-73
2023/01/16 03:21:00;;;;;;;8.85;3.00;;;3.90;99.90;;;;;;5040233;28;20048;-73
2023/01/16 03:23:52;;;;;;;10.70;3.38;;;3.90;99.90;;;;;;5016925;28;20040;-73
2023/01/16 03:26:42;;;;;;;6.53;3.05;;;3.90;99.90;;;;;;5054475;28;20424;-73
2023/01/16 03:29:29;;;;;;;9.73;3.22;;;3.90;99.90;;;;;;5032164;28;20497;-73
2023/01/16 03:32:15;;;;;;;12.75;3.28;;;4.40;99.90;;;;;;5031270;28;20089;-73
2023/01/16 03:34:55;;;;;;;8.60;2.83;;;3.90;99.90;;;;;;5042407;28;20049;-73
2023/01/16 03:37:40;;;;;;;8.85;3.17;;;3.90;99.90;;;;;;5037678;28;20136;-73
2023/01/16 03:40:09;;;;;;;7.43;3.22;;;3.90;99.90;;;;;;5025105;28;20405;-73
2023/01/16 03:43:05;;;;;;;12.95;3.08;;;3.90;99.90;;;;;;5030753;28;20044;-73
2023/01/16 03:45:54;;;;;;;15.25;3.20;;;3.90;99.90;;;;;;5056307;28;20048;-73
2023/01/16 03:48:47;;;;;;;11.85;3.20;;;3.90;99.90;;;;;;5020121;28;20517;-73
2023/01/16 03:51:18;;;;;;;8.50;3.03;;;3.90;99.90;;;;;;5039367;28;20492;-73
2023/01/16 03:53:51;;;;;;;;;;;4.20;99.90;;;;;;5043071;28;20049;-73
2023/01/16 03:56:21;;;;;;;7.95;3.17;;;3.90;99.90;;;;;;5023361;28;20991;-73
2023/01/16 03:58:51;;;;;;;9.90;3.25;;;3.90;99.90;;;;;;5041001;28;20123;-73
2023/01/16 04:01:36;;;;;;;12.35;3.85;;;3.90;99.90;;;;;;5043494;28;20064;-73
2023/01/16 04:04:06;;;;;;;11.32;3.35;;;3.90;99.90;;;;;;5048766;28;20048;-72
2023/01/16 04:06:50;;;;;;;7.68;3.42;;;3.90;99.90;;;;;;5022971;28;20049;-73
2023/01/16 04:09:25;;;;;;;9.38;3.60;;;3.90;99.90;;;;;;5060187;28;20032;-72
2023/01/16 04:11:53;;;;;;;8.98;3.67;;;4.00;99.90;;;;;;5058302;28;20127;-72
2023/01/16 04:14:22;;;;;;;8.85;3.65;;;3.90;99.90;;;;;;5045103;28;20047;-72
2023/01/16 04:16:49;;;;;;;9.50;3.97;;;3.90;99.90;;;;;;5050434;28;20106;-73
2023/01/16 04:19:16;;;;;;;9.50;3.70;;;3.90;99.90;;;;;;5058382;28;20421;-72
2023/01/16 04:21:46;;;;;;;9.88;4.10;;;3.90;99.90;;;;;;5036228;28;20139;-73
2023/01/16 04:24:13;;;;;;;8.77;3.90;;;3.90;99.90;;;;;;5039466;28;20525;-73
2023/01/16 04:26:39;;;;;;;13.05;3.97;;;3.90;99.90;;;;;;5051886;28;20400;-72
2023/01/16 04:29:04;;;;;;;11.93;4.75;;;3.90;99.90;;;;;;5052705;28;20041;-72
2023/01/16 04:31:30;;;;;;;9.90;4.35;;;3.90;99.90;;;;;;5055840;28;20048;-72
2023/01/16 04:33:56;;;;;;;10.38;4.35;;;3.90;99.90;;;;;;5072297;28;20119;-72
2023/01/16 04:36:22;;;;;;;11.23;5.30;;;3.90;99.90;;;;;;5057338;28;20045;-72
2023/01/16 04:38:47;;;;;;;15.80;5.78;;;3.90;99.90;;;;;;5082040;28;20408;-73
2023/01/16 04:41:35;;;;;;;14.18;5.35;;;3.90;99.90;;;;;;5053778;28;20075;-73
2023/01/16 04:43:59;;;;;;;19.85;5.93;;;3.90;99.90;;;;;;5058018;28;20062;-73
2023/01/16 04:46:25;;;;;;;15.80;5.85;;;3.90;99.90;;;;;;5070724;28;20040;-72
2023/01/16 04:48:50;;;;;;;14.10;5.70;;;3.90;99.90;;;;;;5039303;28;20087;-73
2023/01/16 04:51:16;;;;;;;12.95;5.60;;;3.90;99.90;;;;;;5050433;28;20958;-72
2023/01/16 04:53:42;;;;;;;12.60;5.82;;;3.90;99.90;;;;;;5060032;28;20032;-73
2023/01/16 04:56:07;;;;;;;13.98;6.88;;;3.90;99.90;;;;;;5052683;28;20044;-71
2023/01/16 04:58:33;;;;;;;14.70;6.18;;;3.90;99.90;;;;;;5059415;28;20098;-73
2023/01/16 05:00:59;;;;;;;12.95;6.35;;;3.90;99.90;;;;;;5060287;28;20492;-72
2023/01/16 05:03:25;;;;;;;12.00;6.35;;;4.00;99.90;;;;;;5070968;28;20619;-73
2023/01/16 05:05:50;;;;;;;17.17;7.00;;;4.30;99.90;;;;;;5059134;28;20039;-72
2023/01/16 05:08:16;;;;;;;14.82;7.07;;;4.00;99.90;;;;;;5053270;28;20048;-72
2023/01/16 05:10:42;;;;;;;13.32;7.05;;;4.00;99.90;;;;;;5038068;28;20445;-72
2023/01/16 05:13:07;;;;;;;14.38;7.18;;;4.10;99.90;;;;;;5075332;28;20068;-72
2023/01/16 05:15:33;;;;;;;19.00;7.05;;;3.90;99.90;;;;;;5057059;28;20523;-73
2023/01/16 05:17:59;;;;;;;15.15;7.72;;;3.90;99.90;;;;;;5035974;28;20037;-72
2023/01/16 05:20:25;;;;;;;16.55;7.60;;;4.10;99.90;;;;;;5052486;28;20040;-72
2023/01/16 05:22:51;;;;;;;16.33;7.57;;;3.90;99.90;;;;;;5044825;28;20416;-72
2023/01/16 05:25:16;;;;;;;16.13;8.15;;;3.90;99.90;;;;;;5044535;28;20070;-72
2023/01/16 05:27:42;;;;;;;13.77;7.22;;;3.90;99.90;;;;;;5053973;28;20501;-72
2023/01/16 05:30:08;;;;;;;17.17;8.18;;;3.90;99.90;;;;;;5034652;28;20130;-71
2023/01/16 05:32:34;;;;;;;16.40;8.00;;;3.90;99.90;;;;;;5058989;28;20040;-72
2023/01/16 05:35:01;;;;;;;16.75;8.05;;;3.80;99.90;;;;;;5052164;28;20400;-73
2023/01/16 05:37:28;;;;;;;16.63;8.55;;;3.80;99.90;;;;;;5040047;28;20371;-72
2023/01/16 05:39:56;;;;;;;20.65;9.13;;;3.80;99.90;;;;;;5069490;28;20520;-72
2023/01/16 05:42:24;;;;;;;18.73;9.15;;;3.80;99.90;;;;;;5054226;28;20051;-73
2023/01/16 05:44:51;;;;;;;20.98;8.73;;;3.80;99.90;;;;;;5057897;28;20043;-73
2023/01/16 05:47:20;;;;;;;16.85;8.48;;;3.80;99.90;;;;;;5054066;28;20048;-73
2023/01/16 05:49:46;;;;;;;18.50;8.52;;;4.20;99.90;;;;;;5072784;28;20052;-72
2023/01/16 05:52:12;;;;;;;17.63;9.88;;;3.70;99.90;;;;;;5052283;28;20087;-73
2023/01/16 05:54:38;;;;;;;22.05;9.23;;;3.70;99.90;;;;;;5057791;28;20055;-73
2023/01/16 05:57:04;;;;;;;18.58;9.23;;;3.70;99.90;;;;;;5051984;28;20040;-72
2023/01/16 05:59:29;;;;;;;21.42;10.20;;;3.70;99.90;;;;;;5052477;28;20101;-72
2023/01/16 06:01:56;;;;;;;14.90;8.85;;;3.70;99.90;;;;;;5050216;28;20036;-71
2023/01/16 06:04:23;;;;;;;23.17;10.20;;;3.70;99.90;;;;;;5035241;28;20534;-73
2023/01/16 06:06:48;;;;;;;20.73;9.00;;;3.70;99.90;;;;;;5055564;28;20071;-73
2023/01/16 06:09:15;;;;;;;17.75;9.63;;;4.40;99.90;;;;;;5036871;28;20613;-73
2023/01/16 06:11:40;;;;;;;18.00;8.70;;;3.70;99.90;;;;;;5049021;28;20059;-73
2023/01/16 06:14:06;;;;;;;18.95;8.60;;;3.80;99.90;;;;;;5059575;28;20409;-72
2023/01/16 06:16:33;;;;;;;17.45;9.30;;;3.70;99.90;;;;;;5059658;28;20032;-72
2023/01/16 06:18:59;;;;;;;18.73;10.07;;;3.70;99.90;;;;;;5079427;28;20051;-72
2023/01/16 06:21:25;;;;;;;18.45;9.27;;;3.90;99.90;;;;;;5077376;28;20412;-73
2023/01/16 06:23:50;;;;;;;18.90;9.77;;;3.70;99.90;;;;;;5035663;28;20438;-73
2023/01/16 06:26:16;;;;;;;18.63;9.88;;;3.70;99.90;;;;;;5047081;28;20047;-73
2023/01/16 06:28:42;;;;;;;17.73;10.15;;;3.70;99.90;;;;;;5048982;28;20074;-73
2023/01/16 06:31:08;;;;;;;19.73;10.48;;;3.70;99.90;;;;;;5033890;28;20066;-72
2023/01/16 06:33:34;;;;;;;20.77;10.98;;;3.70;99.90;;;;;;5065837;28;20048;-73
2023/01/16 06:36:00;;;;;;;19.45;11.48;;;3.70;99.90;;;;;;5046084;28;20539;-72
2023/01/16 06:38:26;;;;;;;17.60;10.70;;;3.60;99.90;;;;;;5046705;28;20066;-72
2023/01/16 06:40:56;;;;;;;18.05;9.88;;;3.60;99.90;;;;;;5051061;28;20063;-73
2023/01/16 06:43:26;;;;;;;26.08;10.90;;;3.60;99.90;;;;;;5068285;28;20249;-72
2023/01/16 06:45:52;;;;;;;21.48;10.13;;;3.60;99.90;;;;;;5055818;28;20048;-73
2023/01/16 06:48:18;;;;;;;23.27;11.30;;;3.70;99.90;;;;;;5053268;28;20047;-73
2023/01/16 06:50:44;;;;;;;22.13;9.27;;;3.50;99.90;;;;;;5037918;28;20044;-72
2023/01/16 06:53:11;;;;;;;21.73;9.45;;;3.50;99.90;;;;;;5055514;28;20044;-72
2023/01/16 06:55:37;;;;;;;18.15;10.38;;;3.50;99.90;;;;;;5076240;28;20040;-72
2023/01/16 06:58:03;;;;;;;16.13;8.85;;;3.50;99.90;;;;;;5056502;28;20633;-72
2023/01/16 07:00:28;;;;;;;19.05;8.93;;;3.50;99.90;;;;;;5057089;28;20075;-73
2023/01/16 07:02:56;;;;;;;26.08;10.75;;;3.50;99.90;;;;;;5057522;28;20475;-73
2023/01/16 07:05:23;;;;;;;26.75;9.88;;;3.50;99.90;;;;;;5058366;28;20067;-73
2023/01/16 07:07:49;;;;;;;20.13;9.75;;;3.40;99.90;;;;;;5042981;28;20044;-72
2023/01/16 07:10:16;;;;;;;18.90;8.95;;;3.40;99.90;;;;;;5041709;28;20050;-72
2023/01/16 07:12:41;;;;;;;19.92;9.60;;;3.40;99.90;;;;;;5053980;28;20040;-72
2023/01/16 07:23:25;;;;;;;18.27;8.90;;;3.30;99.90;;;;;;5054465;28;20143;-73
2023/01/16 07:25:53;;;;;;;19.65;8.80;;;3.30;99.90;;;;;;5045423;28;20048;-73
2023/01/16 07:28:19;;;;;;;18.35;8.75;;;3.30;99.90;;;;;;5074131;28;20048;-73
2023/01/16 07:30:47;;;;;;;21.42;9.05;;;3.30;99.90;;;;;;5035381;28;20051;-72
2023/01/16 07:33:13;;;;;;;17.30;8.65;;;3.30;99.90;;;;;;5054145;28;20050;-72
2023/01/16 07:35:39;;;;;;;16.38;7.82;;;3.30;99.90;;;;;;5039532;28;20079;-72
2023/01/16 07:38:05;;;;;;;16.92;8.60;;;3.30;99.90;;;;;;5057389;28;20527;-72
2023/01/16 07:40:30;;;;;;;15.60;7.63;;;3.30;99.90;;;;;;5055948;28;20028;-73
2023/01/16 07:42:56;;;;;;;18.77;7.40;;;3.50;99.90;;;;;;5057987;28;20043;-73
2023/01/16 07:45:22;;;;;;;16.05;8.13;;;3.30;99.90;;;;;;5075401;28;20681;-72
2023/01/16 07:47:48;;;;;;;17.63;8.23;;;3.30;99.90;;;;;;5041066;28;20055;-72
2023/01/16 07:50:13;;;;;;;14.93;7.63;;;3.70;99.90;;;;;;5072771;28;20059;-73
2023/01/16 07:52:39;;;;;;;15.90;7.63;;;3.20;99.90;;;;;;5057658;28;20048;-73
2023/01/16 07:55:05;;;;;;;15.63;7.45;;;3.20;99.90;;;;;;5075184;28;20036;-73
2023/01/16 07:57:31;;;;;;;12.82;6.93;;;3.20;99.90;;;;;;5040687;28;20070;-72
2023/01/16 07:59:56;;;;;;;14.98;6.80;;;3.70;99.90;;;;;;5038561;28;20645;-72
2023/01/16 08:02:22;;;;;;;14.95;7.10;;;3.20;99.90;;;;;;5055448;28;20079;-73
2023/01/16 08:04:48;;;;;;;11.20;6.25;;;3.20;99.90;;;;;;5042471;28;20037;-73
2023/01/16 08:07:14;;;;;;;16.40;6.95;;;3.20;99.90;;;;;;5059507;28;20047;-73
2023/01/16 08:09:39;;;;;;;18.08;7.47;;;3.20;99.90;;;;;;5059666;28;20493;-73
2023/01/16 08:12:05;;;;;;;15.10;6.45;;;3.20;99.90;;;;;;5036745;28;20123;-73
2023/01/16 08:14:31;;;;;;;17.75;7.32;;;3.20;99.90;;;;;;5075646;28;20040;-72
2023/01/16 08:16:57;;;;;;;14.70;6.40;;;3.20;99.90;;;;;;5056316;28;20044;-72
2023/01/16 08:19:22;;;;;;;17.92;6.90;;;3.20;99.90;;;;;;5043724;28;20131;-73
2023/01/16 08:21:48;;;;;;;19.38;6.25;;;3.90;99.90;;;;;;5058682;28;20044;-72
2023/01/16 08:24:14;;;;;;;13.95;6.35;;;3.20;99.90;;;;;;5058195;28;20036;-72
2023/01/16 08:26:40;;;;;;;17.05;6.20;;;3.20;99.90;;;;;;5053928;28;20093;-73
2023/01/16 08:29:06;;;;;;;17.05;6.72;;;3.20;99.90;;;;;;5076837;28;20465;-72
2023/01/16 08:31:32;;;;;;;18.02;6.43;;;3.20;99.90;;;;;;5056499;28;20129;-73
2023/01/16 08:33:58;;;;;;;13.70;6.70;;;3.20;99.90;;;;;;5077717;28;20040;-73
2023/01/16 08:36:25;;;;;;;17.30;6.60;;;3.30;99.90;;;;;;5075770;28;20131;-73
2023/01/16 08:38:51;;;;;;;16.98;7.28;;;3.20;99.90;;;;;;5063048;28;20453;-72
2023/01/16 08:52:34;;;;;;;13.30;7.60;;;3.30;99.90;;;;;;5062992;28;20052;-73
2023/01/16 08:55:00;;;;;;;17.60;7.45;;;3.60;99.90;;;;;;5061164;28;20111;-73
2023/01/16 08:57:30;;;;;;;15.13;6.88;;;3.30;99.90;;;;;;5057246;28;20245;-74
2023/01/16 08:59:57;;;;;;;18.60;7.07;;;3.40;99.90;;;;;;5080601;28;20112;-73
2023/01/16 09:02:25;;;;;;;16.23;7.22;;;3.30;99.90;;;;;;5054035;28;20382;-74
2023/01/16 09:04:50;;;;;;;14.77;7.22;;;3.40;99.90;;;;;;5058386;28;20044;-73
2023/01/16 09:07:16;;;;;;;13.65;6.78;;;3.40;99.90;;;;;;5054254;28;20048;-73
2023/01/16 09:09:42;;;;;;;18.95;7.25;;;3.40;99.90;;;;;;5054539;28;20084;-73
2023/01/16 09:14:57;;;;;;;15.40;6.90;;;3.40;99.90;;;;;;5056052;28;20566;-73
2023/01/16 09:17:24;;;;;;;18.88;6.57;;;3.50;99.90;;;;;;5057698;28;20515;-73
2023/01/16 09:19:51;;;;;;;17.40;5.90;;;3.40;99.90;;;;;;5074364;28;20037;-72
2023/01/16 09:22:17;;;;;;;12.75;5.88;;;3.40;99.90;;;;;;5060537;28;20040;-72
2023/01/16 09:24:43;;;;;;;12.65;5.90;;;3.50;99.90;;;;;;5059451;28;20135;-73
2023/01/16 09:27:09;;;;;;;15.75;5.90;;;3.50;99.90;;;;;;5056298;28;21226;-74
2023/01/16 09:29:35;;;;;;;11.52;6.07;;;3.50;99.90;;;;;;5059070;28;20404;-73
2023/01/16 09:32:07;;;;;;;15.35;5.55;;;3.60;99.90;;;;;;5071543;28;20036;-73
2023/01/16 09:34:33;;;;;;;15.13;5.10;;;3.60;99.90;;;;;;5057273;28;20043;-73
2023/01/16 09:36:59;;;;;;;13.85;5.70;;;3.50;99.90;;;;;;5042792;28;20047;-74
2023/01/16 09:39:25;;;;;;;14.93;6.30;;;3.60;99.90;;;;;;5073438;28;20040;-73
2023/01/16 09:44:57;;;;;;;12.40;4.97;;;3.60;99.90;;;;;;5058252;28;20071;-74
2023/01/16 09:47:24;;;;;;;10.90;4.93;;;3.60;99.90;;;;;;5067069;28;20090;-73
2023/01/16 09:49:55;;;;;;;15.27;5.72;;;3.60;99.90;;;;;;5059714;28;20425;-73
2023/01/16 09:58:35;;;;;;;11.25;5.10;;;3.60;99.90;;;;;;5068377;28;20298;-73
2023/01/16 10:01:02;;;;;;;13.38;5.00;;;3.90;99.90;;;;;;5055534;28;20071;-73
2023/01/16 10:03:27;;;;;;;10.95;4.45;;;3.70;99.90;;;;;;5042222;28;20040;-73
2023/01/16 10:06:11;;;;;;;13.18;4.32;;;3.70;99.90;;;;;;5038469;28;20131;-73
2023/01/16 10:08:59;;;;;;;13.45;4.68;;;3.70;99.90;;;;;;5058875;28;20044;-73
2023/01/16 10:11:40;;;;;;;13.18;4.22;;;3.70;99.90;;;;;;5073620;28;20091;-72
2023/01/16 10:14:36;;;;;;;10.52;3.65;;;3.70;99.90;;;;;;5078038;28;20044;-73
2023/01/16 10:17:15;;;;;;;10.05;3.40;;;3.80;99.90;;;;;;5071672;28;20052;-73
2023/01/16 10:20:03;;;;;;;11.02;3.90;;;3.70;99.90;;;;;;5059615;28;20047;-73
2023/01/16 10:22:40;;;;;;;11.65;4.03;;;3.70;99.90;;;;;;5053469;28;20144;-73
2023/01/16 10:25:24;;;;;;;10.15;3.85;;;3.80;99.90;;;;;;5056040;28;20060;-74
2023/01/16 10:28:25;;;;;;;9.48;4.15;;;3.80;99.90;;;;;;5042544;28;20595;-73
2023/01/16 10:30:58;;;;;;;12.30;3.40;;;3.80;99.90;;;;;;5061752;28;20054;-73
2023/01/16 10:33:34;;;;;;;10.60;3.67;;;3.80;99.90;;;;;;5056899;28;20040;-73
2023/01/16 10:36:03;;;;;;;11.98;3.72;;;3.80;99.90;;;;;;5052605;28;20682;-73
2023/01/16 10:38:45;;;;;;;8.93;3.80;;;4.40;99.90;;;;;;5074294;28;20049;-72
2023/01/16 10:50:14;;;;;;;10.98;3.33;;;3.80;99.90;;;;;;5075938;28;20300;-73
2023/01/16 10:52:41;;;;;;;9.38;3.15;;;3.80;99.90;;;;;;5060551;28;20032;-72
2023/01/16 10:55:08;;;;;;;11.85;3.25;;;3.90;99.90;;;;;;5059214;28;20554;-73
2023/01/16 10:57:35;;;;;;;8.68;2.90;;;3.90;99.90;;;;;;5039510;28;20133;-73
2023/01/16 11:00:08;;;;;;;6.55;2.50;;;3.80;99.90;;;;;;5060621;28;20425;-72
2023/01/16 11:02:40;;;;;;;10.55;3.03;;;3.80;99.90;;;;;;5054209;28;20385;-74
2023/01/16 11:05:35;;;;;;;5.65;2.05;;;3.80;99.90;;;;;;5055204;28;20473;-73
2023/01/16 11:08:27;;;;;;;4.82;1.85;;;3.80;99.90;;;;;;5039848;28;20044;-73
2023/01/16 11:10:53;;;;;;;5.03;1.75;;;3.70;99.90;;;;;;5054724;28;20063;-73
2023/01/16 11:18:55;;;;;;;4.85;2.05;;;3.60;99.90;;;;;;5056421;28;20044;-73
2023/01/16 11:21:30;;;;;;;5.15;2.08;;;3.60;99.90;;;;;;5041809;28;20127;-73
2023/01/16 11:24:03;;;;;;;5.70;1.63;;;3.60;99.90;;;;;;5059516;28;20101;-73
2023/01/16 11:26:29;;;;;;;4.13;1.52;;;3.50;99.90;;;;;;5076872;28;20105;-72
2023/01/16 11:28:57;;;;;;;5.25;1.85;;;3.60;99.90;;;;;;5057087;28;20103;-73
2023/01/16 11:31:26;;;;;;;4.20;1.60;;;3.90;99.90;;;;;;5042722;28;20119;-73
2023/01/16 11:34:00;;;;;;;6.40;2.30;;;3.50;99.90;;;;;;5040401;28;20455;-73
2023/01/16 11:36:30;;;;;;;4.57;1.40;;;3.50;99.90;;;;;;5058463;28;20443;-73
2023/01/16 11:38:56;;;;;;;5.55;2.00;;;3.80;99.90;;;;;;5044695;28;20052;-73
2023/01/16 11:41:34;;;;;;;5.15;1.83;;;3.40;99.90;;;;;;5057845;28;20132;-72
2023/01/16 11:47:01;;;;;;;4.18;1.60;;;3.30;99.90;;;;;;5059195;28;20130;-73
2023/01/16 11:49:44;;;;;;;3.63;1.60;;;3.60;99.90;;;;;;5068707;28;20055;-73
2023/01/16 11:52:26;;;;;;;4.28;1.50;;;3.30;99.90;;;;;;5045393;28;20476;-73
2023/01/16 11:54:54;;;;;;;4.43;2.28;;;3.30;99.90;;;;;;5042757;28;20074;-72
2023/01/16 11:58:08;;;;;;;3.42;1.45;;;3.30;99.90;;;;;;5072445;28;20048;-72
2023/01/16 12:00:58;;;;;;;4.30;1.80;;;3.30;99.90;;;;;;5046201;28;20897;-72
2023/01/16 12:03:48;;;;;;;5.22;2.00;;;3.30;99.90;;;;;;5042447;28;20051;-72
2023/01/16 12:06:23;;;;;;;4.63;1.80;;;3.40;99.90;;;;;;5059423;28;20055;-73
2023/01/16 12:08:56;;;;;;;3.47;1.50;;;3.50;99.90;;;;;;5078695;28;20047;-73
2023/01/16 12:11:30;;;;;;;3.92;1.58;;;3.20;99.90;;;;;;5041255;28;20059;-73
2023/01/16 12:14:26;;;;;;;4.78;1.95;;;3.30;99.90;;;;;;5077836;28;20641;-73
2023/01/16 12:17:16;;;;;;;5.50;1.80;;;3.30;99.90;;;;;;5064327;28;20539;-73
2023/01/16 12:19:42;;;;;;;4.60;1.65;;;3.30;99.90;;;;;;5062694;28;20059;-73
2023/01/16 12:22:11;;;;;;;3.90;1.83;;;3.30;99.90;;;;;;5041678;28;20796;-73
2023/01/16 12:24:56;;;;;;;5.30;1.80;;;3.30;99.90;;;;;;5065291;28;20040;-73
2023/01/16 12:27:34;;;;;;;3.90;1.92;;;3.30;99.90;;;;;;5082318;28;20052;-72
2023/01/16 12:30:18;;;;;;;5.15;1.88;;;3.30;99.90;;;;;;5081983;28;20054;-73
2023/01/16 12:32:56;;;;;;;6.35;1.80;;;3.30;99.90;;;;;;5064635;28;20082;-74
2023/01/16 12:35:36;;;;;;;4.78;1.90;;;3.30;99.90;;;;;;5063426;28;20052;-72
2023/01/16 12:38:17;;;;;;;4.88;1.88;;;3.40;99.90;;;;;;5080125;28;20059;-72
2023/01/16 12:43:17;;;;;;;5.43;1.77;;;3.40;99.90;;;;;;5059815;28;20051;-73
2023/01/16 12:44:10;;;;;;;7.60;2.03;;;3.40;99.90;;;;;;5061423;28;20058;-72
2023/01/16 12:47:05;;;;;;;4.00;1.88;;;3.40;99.90;;;;;;5061218;28;20064;-73
2023/01/16 12:49:34;;;;;;;6.60;2.10;;;3.40;99.90;;;;;;5059001;28;21907;-72
2023/01/16 12:52:30;;;;;;;8.18;2.33;;;3.40;99.90;;;;;;5080469;28;20076;-72
2023/01/16 12:55:05;;;;;;;4.82;1.98;;;3.40;99.90;;;;;;5062260;28;20044;-72
2023/01/16 12:57:30;;;;;;;4.40;2.08;;;3.50;99.90;;;;;;5055708;28;20115;-71
2023/01/16 13:00:20;;;;;;;4.32;2.05;;;3.50;99.90;;;;;;5059496;28;20135;-71
2023/01/16 13:02:58;;;;;;;4.68;2.40;;;3.50;99.90;;;;;;5046678;28;20783;-71
2023/01/16 13:05:36;;;;;;;5.65;2.47;;;3.50;99.90;;;;;;5063340;28;20055;-72
2023/01/16 13:08:11;;;;;;;5.13;2.13;;;3.90;99.90;;;;;;5077946;28;20048;-71
2023/01/16 13:13:33;;;;;;;6.90;2.00;;;3.60;99.90;;;;;;5062160;28;20048;-73
2023/01/16 13:16:26;;;;;;;4.55;2.00;;;3.60;99.90;;;;;;5046005;28;20099;-71
2023/01/16 13:19:09;;;;;;;4.38;2.13;;;3.60;99.90;;;;;;5046162;28;20039;-71
2023/01/16 13:21:43;;;;;;;5.90;2.25;;;3.60;99.90;;;;;;5046751;28;20129;-72
2023/01/16 13:24:31;;;;;;;5.65;2.40;;;3.60;99.90;;;;;;5079468;28;20044;-71
2023/01/16 13:27:02;;;;;;;11.05;2.60;;;3.60;99.90;;;;;;5061437;28;20455;-72
2023/01/16 13:29:47;;;;;;;7.22;2.30;;;3.70;99.90;;;;;;5059897;28;20075;-72
2023/01/16 13:32:22;;;;;;;7.10;1.90;;;3.70;99.90;;;;;;5063040;28;20047;-71
2023/01/16 13:34:55;;;;;;;6.80;2.55;;;4.30;99.90;;;;;;5079902;28;20397;-72
2023/01/16 13:38:05;;;;;;;6.70;2.20;;;3.70;99.90;;;;;;5044254;28;20054;-72
2023/01/16 13:40:43;;;;;;;4.10;2.00;;;3.80;99.90;;;;;;5077629;28;20056;-72
2023/01/16 13:46:02;;;;;;;8.73;3.05;;;3.80;99.90;;;;;;5061422;28;20109;-72
2023/01/16 13:48:31;;;;;;;6.93;2.38;;;3.80;99.90;;;;;;5044679;28;20471;-71
2023/01/16 13:51:23;;;;;;;7.28;3.08;;;3.80;99.90;;;;;;5057436;28;20710;-73
2023/01/16 13:53:58;;;;;;;6.95;3.38;;;3.80;99.90;;;;;;5077885;28;20797;-71
2023/01/16 13:56:26;;;;;;;6.85;2.72;;;3.90;99.90;;;;;;5078362;28;20638;-72
2023/01/16 13:59:07;;;;;;;5.53;2.40;;;3.90;99.90;;;;;;5061779;28;20028;-72
2023/01/16 14:01:56;;;;;;;4.47;2.53;;;3.90;99.90;;;;;;5043503;28;20048;-72
2023/01/16 14:04:23;;;;;;;6.65;2.65;;;4.60;99.90;;;;;;5057675;28;20040;-71
2023/01/16 14:10:17;;;;;;;6.88;2.80;;;4.00;99.90;;;;;;5057303;28;20109;-72
2023/01/16 14:13:20;;;;;;;7.53;3.05;;;4.00;99.90;;;;;;5057504;28;20156;-72
2023/01/16 14:19:19;;;;;;;6.47;2.70;;;4.00;99.90;;;;;;5059680;28;20056;-73